Time,TemperatureF,DewpointF,PressureIn,WindDirection,WindDirectionDegrees,WindSpeedMPH,WindSpeedGustMPH,Humidity,HourlyPrecipIn,Conditions,Clouds,dailyrainin,SoftwareType,DateUTC
2013-06-16 00:01:00,70.3,63.2,29.83,SSW,202,0.0,0.0,78,0.00,CLR,SKC,0.00,WeatherDisplay:10.37,2013-06-16 04:01:00,
2013-06-16 00:06:00,70.3,63.2,29.82,South,180,0.0,0.0,78,0.00,CLR,SKC,0.00,WeatherDisplay:10.37,2013-06-16 04:06:00,
2013-06-16 00:11:00,70.3,63.2,29.83,South,180,0.0,0.0,78,0.00,CLR,SKC,0.00,WeatherDisplay:10.37,2013-06-16 04:11:00,
2013-06-16 00:16:00,70.2,63.0,29.83,South,180,0.0,0.0,78,0.00,CLR,SKC,0.00,WeatherDisplay:10.37,2013-06-16 04:16:00,
2013-06-16 00:21:00,70.2,63.0,29.83,South,180,0.0,0.0,78,0.00,CLR,SKC,0.00,WeatherDisplay:10.37,2013-06-16 04:21:00,
2013-06-16 00:26:00,70.0,62.4,29.83,South,180,0.0,0.0,77,0.00,CLR,SKC,0.00,WeatherDisplay:10.37,2013-06-16 04:26:00,
2013-06-16 00:31:00,70.0,62.4,29.82,South,180,0.0,0.0,77,0.00,CLR,SKC,0.00,WeatherDisplay:10.37,2013-06-16 04:31:00,
2013-06-16 00:36:00,70.0,62.8,29.82,SSW,202,0.0,1.1,78,0.00,CLR,SKC,0.00,WeatherDisplay:10.37,2013-06-16 04:36:00,
2013-06-16 00:41:00,70.0,62.8,29.83,SSW,202,0.0,0.0,78,0.00,CLR,SKC,0.00,WeatherDisplay:10.37,2013-06-16 04:41:00,
2013-06-16 00:46:00,70.2,63.0,29.82,SSW,202,0.0,0.0,78,0.00,CLR,SKC,0.00,WeatherDisplay:10.37,2013-06-16 04:46:00,
2013-06-16 00:51:00,70.3,63.2,29.82,SW,225,0.4,0.0,78,0.00,CLR,SKC,0.00,WeatherDisplay:10.37,2013-06-16 04:51:00,
2013-06-16 00:56:00,70.3,63.2,29.82,South,180,0.4,2.3,78,0.00,CLR,SKC,0.00,WeatherDisplay:10.37,2013-06-16 04:56:00,
2013-06-16 01:01:00,70.3,63.2,29.82,SSE,158,0.9,0.0,78,0.00,CLR,SKC,0.00,WeatherDisplay:10.37,2013-06-16 05:01:00,
2013-06-16 01:06:00,70.3,63.2,29.82,SSW,202,0.0,0.0,78,0.00,CLR,SKC,0.00,WeatherDisplay:10.37,2013-06-16 05:06:00,
2013-06-16 01:11:00,70.3,63.2,29.83,SSW,202,0.0,0.0,78,0.00,CLR,SKC,0.00,WeatherDisplay:10.37,2013-06-16 05:11:00,
2013-06-16 01:16:00,70.3,63.2,29.83,West,270,0.6,3.5,78,0.00,CLR,SKC,0.00,WeatherDisplay:10.37,2013-06-16 05:16:00,
2013-06-16 01:21:00,70.5,63.3,29.83,West,270,0.4,0.0,78,0.00,CLR,SKC,0.00,WeatherDisplay:10.37,2013-06-16 05:21:00,
2013-06-16 01:26:00,70.7,63.5,29.83,WSW,248,0.0,4.6,78,0.00,CLR,SKC,0.00,WeatherDisplay:10.37,2013-06-16 05:26:00,
2013-06-16 01:31:00,70.9,63.7,29.84,West,270,8.2,8.2,78,0.00,CLR,SKC,0.00,WeatherDisplay:10.37,2013-06-16 05:31:00,
2013-06-16 01:36:00,71.2,64.4,29.84,West,270,5.4,13.8,79,0.00,CLR,SKC,0.00,WeatherDisplay:10.37,2013-06-16 05:36:00,
2013-06-16 01:41:00,71.4,64.6,29.84,West,270,5.4,20.7,79,0.00,CLR,SKC,0.00,WeatherDisplay:10.37,2013-06-16 05:41:00,
2013-06-16 01:46:00,71.8,64.9,29.84,WSW,248,10.8,20.7,79,0.00,CLR,SKC,0.00,WeatherDisplay:10.37,2013-06-16 05:46:00,
2013-06-16 01:51:00,71.8,64.9,29.84,SW,225,11.4,18.4,79,0.00,CLR,SKC,0.00,WeatherDisplay:10.37,2013-06-16 05:51:00,
2013-06-16 01:56:00,71.8,64.5,29.84,WNW,292,5.3,11.5,78,0.00,CLR,SKC,0.00,WeatherDisplay:10.37,2013-06-16 05:56:00,
2013-06-16 02:01:00,71.8,64.2,29.84,West,270,7.7,13.8,77,0.00,CLR,SKC,0.00,WeatherDisplay:10.37,2013-06-16 06:01:00,
2013-06-16 02:06:00,71.4,64.2,29.84,West,270,6.0,8.1,78,0.00,CLR,SKC,0.00,WeatherDisplay:10.37,2013-06-16 06:06:00,
2013-06-16 02:11:00,71.2,64.0,29.84,NW,315,2.4,8.1,78,0.00,CLR,SKC,0.00,WeatherDisplay:10.37,2013-06-16 06:11:00,
2013-06-16 02:16:00,70.9,63.7,29.83,SSW,202,6.2,10.4,78,0.00,CLR,SKC,0.00,WeatherDisplay:10.37,2013-06-16 06:16:00,
2013-06-16 02:21:00,70.9,63.7,29.83,West,270,5.1,6.9,78,0.00,CLR,SKC,0.00,WeatherDisplay:10.37,2013-06-16 06:21:00,
2013-06-16 02:26:00,70.5,63.3,29.83,West,270,3.6,5.8,78,0.00,CLR,SKC,0.00,WeatherDisplay:10.37,2013-06-16 06:26:00,
2013-06-16 02:31:00,70.5,63.3,29.82,WSW,248,3.3,9.2,78,0.00,CLR,SKC,0.00,WeatherDisplay:10.37,2013-06-16 06:31:00,
2013-06-16 02:36:00,70.3,63.2,29.82,WNW,292,2.6,8.1,78,0.00,CLR,SKC,0.00,WeatherDisplay:10.37,2013-06-16 06:36:00,
2013-06-16 02:41:00,70.2,63.3,29.82,WNW,292,1.0,2.2,79,0.00,CLR,SKC,0.00,WeatherDisplay:10.37,2013-06-16 06:41:00,
2013-06-16 02:46:00,70.0,63.2,29.82,West,270,0.6,2.3,79,0.00,CLR,SKC,0.00,WeatherDisplay:10.37,2013-06-16 06:46:00,
2013-06-16 02:51:00,69.8,63.0,29.82,West,270,0.1,1.1,79,0.00,CLR,SKC,0.00,WeatherDisplay:10.37,2013-06-16 06:51:00,
2013-06-16 02:56:00,69.6,62.8,29.82,SSW,202,0.2,1.1,79,0.00,CLR,SKC,0.00,WeatherDisplay:10.37,2013-06-16 06:56:00,
2013-06-16 03:01:00,69.6,62.8,29.82,SSW,202,0.7,0.0,79,0.00,CLR,SKC,0.00,WeatherDisplay:10.37,2013-06-16 07:01:00,
2013-06-16 03:06:00,69.4,63.0,29.80,West,270,0.3,1.1,80,0.00,CLR,SKC,0.00,WeatherDisplay:10.37,2013-06-16 07:06:00,
2013-06-16 03:11:00,69.4,63.0,29.80,ESE,112,0.0,0.0,80,0.00,CLR,SKC,0.00,WeatherDisplay:10.37,2013-06-16 07:11:00,
2013-06-16 03:16:00,69.4,63.0,29.80,SW,225,0.0,1.1,80,0.00,CLR,SKC,0.00,WeatherDisplay:10.37,2013-06-16 07:16:00,
2013-06-16 03:21:00,69.3,62.8,29.80,West,270,0.6,3.5,80,0.00,CLR,SKC,0.00,WeatherDisplay:10.37,2013-06-16 07:21:00,
2013-06-16 03:26:00,69.1,62.6,29.80,SSW,202,0.1,1.1,80,0.00,CLR,SKC,0.00,WeatherDisplay:10.37,2013-06-16 07:26:00,
2013-06-16 03:31:00,69.1,62.6,29.79,SW,225,0.3,1.1,80,0.00,CLR,SKC,0.00,WeatherDisplay:10.37,2013-06-16 07:31:00,
2013-06-16 03:36:00,68.9,62.5,29.80,SSW,202,0.4,2.3,80,0.00,CLR,SKC,0.00,WeatherDisplay:10.37,2013-06-16 07:36:00,
2013-06-16 03:41:00,68.9,62.5,29.80,West,270,1.8,2.3,80,0.00,CLR,SKC,0.00,WeatherDisplay:10.37,2013-06-16 07:41:00,
2013-06-16 03:46:00,68.7,62.7,29.79,South,180,0.0,3.5,81,0.00,CLR,SKC,0.00,WeatherDisplay:10.37,2013-06-16 07:46:00,
2013-06-16 03:51:00,68.7,62.7,29.79,SW,225,0.1,0.0,81,0.00,CLR,SKC,0.00,WeatherDisplay:10.37,2013-06-16 07:51:00,
2013-06-16 03:56:00,68.5,62.5,29.78,South,180,0.0,3.5,81,0.00,CLR,SKC,0.00,WeatherDisplay:10.37,2013-06-16 07:56:00,
2013-06-16 04:01:00,68.5,62.5,29.79,SSW,202,0.4,2.3,81,0.00,CLR,SKC,0.00,WeatherDisplay:10.37,2013-06-16 08:01:00,
2013-06-16 04:06:00,68.4,62.3,29.79,SSW,202,0.7,2.3,81,0.00,CLR,SKC,0.00,WeatherDisplay:10.37,2013-06-16 08:06:00,
2013-06-16 04:11:00,68.2,62.1,29.78,SSW,202,0.5,0.0,81,0.00,CLR,SKC,0.00,WeatherDisplay:10.37,2013-06-16 08:11:00,
2013-06-16 04:16:00,68.2,62.1,29.77,SSE,158,0.2,0.0,81,0.00,CLR,SKC,0.00,WeatherDisplay:10.37,2013-06-16 08:16:00,
2013-06-16 04:21:00,68.2,62.1,29.78,SW,225,0.0,0.0,81,0.00,CLR,SKC,0.00,WeatherDisplay:10.37,2013-06-16 08:21:00,
2013-06-16 04:26:00,67.8,61.8,29.78,SW,225,0.0,0.0,81,0.00,CLR,SKC,0.00,WeatherDisplay:10.37,2013-06-16 08:26:00,
2013-06-16 04:31:00,67.8,61.8,29.79,South,180,0.0,0.0,81,0.00,CLR,SKC,0.00,WeatherDisplay:10.37,2013-06-16 08:31:00,
2013-06-16 04:36:00,67.8,61.8,29.79,South,180,0.0,0.0,81,0.00,CLR,SKC,0.00,WeatherDisplay:10.37,2013-06-16 08:36:00,
2013-06-16 04:41:00,67.8,61.8,29.79,WSW,248,0.0,0.0,81,0.00,CLR,SKC,0.00,WeatherDisplay:10.37,2013-06-16 08:41:00,
2013-06-16 04:46:00,67.8,61.8,29.80,West,270,0.0,2.3,81,0.00,CLR,SKC,0.00,WeatherDisplay:10.37,2013-06-16 08:46:00,
2013-06-16 04:51:00,67.8,61.8,29.80,WNW,292,2.3,4.6,81,0.00,CLR,SKC,0.00,WeatherDisplay:10.37,2013-06-16 08:51:00,
2013-06-16 04:56:00,67.8,62.1,29.80,SSE,158,0.0,0.0,82,0.00,CLR,SKC,0.00,WeatherDisplay:10.37,2013-06-16 08:56:00,
2013-06-16 05:01:00,67.6,61.9,29.80,South,180,2.3,3.5,82,0.00,CLR,SKC,0.00,WeatherDisplay:10.37,2013-06-16 09:01:00,
2013-06-16 05:06:00,67.6,61.9,29.79,SSW,202,0.4,2.3,82,0.00,CLR,SKC,0.00,WeatherDisplay:10.37,2013-06-16 09:06:00,
2013-06-16 05:11:00,67.6,61.9,29.80,WSW,248,0.0,0.0,82,0.00,CLR,SKC,0.00,WeatherDisplay:10.37,2013-06-16 09:11:00,
2013-06-16 05:16:00,67.6,61.9,29.80,NNW,338,0.0,2.3,82,0.00,CLR,SKC,0.00,WeatherDisplay:10.37,2013-06-16 09:16:00,
2013-06-16 05:21:00,67.6,61.9,29.80,SW,225,0.0,0.0,82,0.00,CLR,SKC,0.00,WeatherDisplay:10.37,2013-06-16 09:21:00,
2013-06-16 05:26:00,67.8,62.1,29.80,SSE,158,0.0,0.0,82,0.00,CLR,SKC,0.00,WeatherDisplay:10.37,2013-06-16 09:26:00,
2013-06-16 05:31:00,67.6,61.9,29.80,WNW,292,0.0,0.0,82,0.00,CLR,SKC,0.00,WeatherDisplay:10.37,2013-06-16 09:31:00,
2013-06-16 05:36:00,67.6,61.9,29.80,SSW,202,0.0,0.0,82,0.00,CLR,SKC,0.00,WeatherDisplay:10.37,2013-06-16 09:36:00,
2013-06-16 05:41:00,67.6,61.9,29.80,SSW,202,0.0,0.0,82,0.00,CLR,SKC,0.00,WeatherDisplay:10.37,2013-06-16 09:41:00,
2013-06-16 05:46:00,67.6,61.9,29.80,South,180,0.0,0.0,82,0.00,CLR,SKC,0.00,WeatherDisplay:10.37,2013-06-16 09:46:00,
2013-06-16 05:51:00,67.6,61.9,29.80,West,270,0.0,0.0,82,0.00,CLR,SKC,0.00,WeatherDisplay:10.37,2013-06-16 09:51:00,
2013-06-16 05:56:00,67.6,61.9,29.80,SSW,202,0.0,0.0,82,0.00,CLR,SKC,0.00,WeatherDisplay:10.37,2013-06-16 09:56:00,
2013-06-16 06:01:00,67.6,61.9,29.81,WSW,248,0.0,0.0,82,0.00,CLR,SKC,0.00,WeatherDisplay:10.37,2013-06-16 10:01:00,
2013-06-16 06:06:00,67.6,61.9,29.81,WSW,248,0.0,0.0,82,0.00,CLR,SKC,0.00,WeatherDisplay:10.37,2013-06-16 10:06:00,
2013-06-16 06:11:00,67.6,61.9,29.81,WNW,292,0.0,0.0,82,0.00,CLR,SKC,0.00,WeatherDisplay:10.37,2013-06-16 10:11:00,
2013-06-16 06:16:00,67.6,61.9,29.81,West,270,0.0,0.0,82,0.00,CLR,SKC,0.00,WeatherDisplay:10.37,2013-06-16 10:16:00,
2013-06-16 06:21:00,67.6,61.9,29.81,West,270,0.0,0.0,82,0.00,CLR,SKC,0.00,WeatherDisplay:10.37,2013-06-16 10:21:00,
2013-06-16 06:26:00,67.6,61.9,29.82,West,270,0.0,0.0,82,0.00,CLR,SKC,0.00,WeatherDisplay:10.37,2013-06-16 10:26:00,
2013-06-16 06:31:00,67.8,62.1,29.82,WSW,248,0.0,0.0,82,0.00,CLR,SKC,0.00,WeatherDisplay:10.37,2013-06-16 10:31:00,
2013-06-16 06:36:00,67.8,62.1,29.82,West,270,0.0,0.0,82,0.00,CLR,SKC,0.00,WeatherDisplay:10.37,2013-06-16 10:36:00,
2013-06-16 06:41:00,67.8,62.1,29.82,WSW,248,0.0,0.0,82,0.00,CLR,SKC,0.00,WeatherDisplay:10.37,2013-06-16 10:41:00,
2013-06-16 06:46:00,67.8,62.1,29.82,WSW,248,0.0,0.0,82,0.00,CLR,SKC,0.00,WeatherDisplay:10.37,2013-06-16 10:46:00,
2013-06-16 06:51:00,68.2,62.5,29.83,West,270,2.1,4.6,82,0.00,CLR,SKC,0.00,WeatherDisplay:10.37,2013-06-16 10:51:00,
2013-06-16 06:56:00,68.4,62.3,29.82,West,270,6.1,10.4,81,0.00,CLR,SKC,0.00,WeatherDisplay:10.37,2013-06-16 10:56:00,
2013-06-16 07:01:00,68.5,62.5,29.83,WSW,248,3.9,4.6,81,0.00,CLR,SKC,0.00,WeatherDisplay:10.37,2013-06-16 11:01:00,
2013-06-16 07:06:00,68.7,62.7,29.83,WSW,248,4.1,5.8,81,0.00,CLR,SKC,0.00,WeatherDisplay:10.37,2013-06-16 11:06:00,
2013-06-16 07:11:00,68.9,62.8,29.83,West,270,4.6,9.2,81,0.00,CLR,SKC,0.00,WeatherDisplay:10.37,2013-06-16 11:11:00,
2013-06-16 07:16:00,69.1,63.0,29.83,West,270,2.2,3.5,81,0.00,CLR,SKC,0.00,WeatherDisplay:10.37,2013-06-16 11:16:00,
2013-06-16 07:21:00,69.3,62.8,29.83,WSW,248,1.6,4.0,80,0.00,CLR,SKC,0.00,WeatherDisplay:10.37,2013-06-16 11:21:00,
2013-06-16 07:26:00,69.3,62.8,29.84,West,270,3.4,6.9,80,0.00,CLR,SKC,0.00,WeatherDisplay:10.37,2013-06-16 11:26:00,
2013-06-16 07:31:00,69.4,63.0,29.83,WSW,248,3.7,7.6,80,0.00,CLR,SKC,0.00,WeatherDisplay:10.37,2013-06-16 11:31:00,
2013-06-16 07:36:00,69.3,62.8,29.84,SW,225,3.1,3.4,80,0.00,CLR,SKC,0.00,WeatherDisplay:10.37,2013-06-16 11:36:00,
2013-06-16 07:41:00,69.4,63.0,29.84,WSW,248,1.4,5.8,80,0.00,CLR,SKC,0.00,WeatherDisplay:10.37,2013-06-16 11:41:00,
2013-06-16 07:46:00,69.6,63.2,29.84,West,270,0.0,3.5,80,0.00,CLR,SKC,0.00,WeatherDisplay:10.37,2013-06-16 11:46:00,
2013-06-16 07:51:00,69.6,63.2,29.84,West,270,4.3,6.9,80,0.00,CLR,SKC,0.00,WeatherDisplay:10.37,2013-06-16 11:51:00,
2013-06-16 07:56:00,69.6,63.2,29.84,WSW,248,1.4,4.5,80,0.00,CLR,SKC,0.00,WeatherDisplay:10.37,2013-06-16 11:56:00,
2013-06-16 08:01:00,69.6,63.2,29.84,West,270,3.1,3.5,80,0.00,CLR,SKC,0.00,WeatherDisplay:10.37,2013-06-16 12:01:00,
2013-06-16 08:06:00,69.6,63.2,29.84,West,270,0.6,3.5,80,0.00,CLR,SKC,0.00,WeatherDisplay:10.37,2013-06-16 12:06:00,
2013-06-16 08:11:00,69.6,63.2,29.83,WSW,248,4.8,10.4,80,0.00,CLR,SKC,0.00,WeatherDisplay:10.37,2013-06-16 12:11:00,
2013-06-16 08:16:00,69.4,63.0,29.84,West,270,1.8,5.8,80,0.00,CLR,SKC,0.00,WeatherDisplay:10.37,2013-06-16 12:16:00,
2013-06-16 08:21:00,69.4,63.0,29.83,SSW,202,2.6,3.5,80,0.00,CLR,SKC,0.00,WeatherDisplay:10.37,2013-06-16 12:21:00,
2013-06-16 08:26:00,69.4,63.0,29.84,West,270,0.0,0.0,80,0.00,CLR,SKC,0.00,WeatherDisplay:10.37,2013-06-16 12:26:00,
2013-06-16 08:31:00,69.4,63.4,29.84,WSW,248,0.2,1.1,81,0.00,CLR,SKC,0.00,WeatherDisplay:10.37,2013-06-16 12:31:00,
2013-06-16 08:36:00,69.4,63.4,29.84,SW,225,1.2,2.5,81,0.00,CLR,SKC,0.00,WeatherDisplay:10.37,2013-06-16 12:36:00,
2013-06-16 08:41:00,69.6,63.5,29.84,WSW,248,0.0,0.0,81,0.00,CLR,SKC,0.00,WeatherDisplay:10.37,2013-06-16 12:41:00,
2013-06-16 08:46:00,69.8,63.7,29.84,WNW,292,0.3,3.5,81,0.00,CLR,SKC,0.00,WeatherDisplay:10.37,2013-06-16 12:46:00,
2013-06-16 08:51:00,70.2,64.1,29.84,WSW,248,1.1,8.5,81,0.00,CLR,SKC,0.00,WeatherDisplay:10.37,2013-06-16 12:51:00,
2013-06-16 08:56:00,70.7,64.6,29.84,West,270,1.9,2.3,81,0.00,CLR,SKC,0.00,WeatherDisplay:10.37,2013-06-16 12:56:00,
2013-06-16 09:01:00,70.9,64.8,29.83,West,270,2.0,4.6,81,0.00,CLR,SKC,0.00,WeatherDisplay:10.37,2013-06-16 13:01:00,
2013-06-16 09:06:00,71.1,64.6,29.84,West,270,0.9,4.0,80,0.00,CLR,SKC,0.00,WeatherDisplay:10.37,2013-06-16 13:06:00,
2013-06-16 09:11:00,71.2,64.8,29.84,WSW,248,5.7,8.1,80,0.00,CLR,SKC,0.00,WeatherDisplay:10.37,2013-06-16 13:11:00,
2013-06-16 09:16:00,71.2,64.4,29.85,WSW,248,1.3,4.6,79,0.00,CLR,SKC,0.00,WeatherDisplay:10.37,2013-06-16 13:16:00,
2013-06-16 09:21:00,71.2,64.4,29.85,WSW,248,3.1,8.1,79,0.00,CLR,SKC,0.00,WeatherDisplay:10.37,2013-06-16 13:21:00,
2013-06-16 09:26:00,71.4,64.6,29.85,West,270,2.3,5.8,79,0.00,CLR,SKC,0.00,WeatherDisplay:10.37,2013-06-16 13:26:00,
2013-06-16 09:31:00,71.8,64.9,29.85,West,270,1.7,5.8,79,0.00,CLR,SKC,0.00,WeatherDisplay:10.37,2013-06-16 13:31:00,
2013-06-16 09:36:00,72.1,65.3,29.85,WSW,248,2.3,7.4,79,0.00,CLR,SKC,0.00,WeatherDisplay:10.37,2013-06-16 13:36:00,
2013-06-16 09:41:00,72.3,65.4,29.86,South,180,0.3,2.9,79,0.00,CLR,SKC,0.00,WeatherDisplay:10.37,2013-06-16 13:41:00,
2013-06-16 09:46:00,72.3,65.1,29.85,SW,225,1.1,9.2,78,0.00,CLR,SKC,0.00,WeatherDisplay:10.37,2013-06-16 13:46:00,
2013-06-16 09:51:00,72.9,65.6,29.85,WSW,248,5.3,10.4,78,0.00,CLR,SKC,0.00,WeatherDisplay:10.37,2013-06-16 13:51:00,
2013-06-16 09:56:00,73.6,66.3,29.85,West,270,5.8,6.9,78,0.00,CLR,SKC,0.00,WeatherDisplay:10.37,2013-06-16 13:56:00,
2013-06-16 10:01:00,74.1,66.4,29.85,SSW,202,2.3,10.4,77,0.00,CLR,SKC,0.00,WeatherDisplay:10.37,2013-06-16 14:01:00,
2013-06-16 10:06:00,74.5,66.4,29.84,WSW,248,4.2,12.7,76,0.00,CLR,SKC,0.00,WeatherDisplay:10.37,2013-06-16 14:06:00,
2013-06-16 10:11:00,75.0,66.6,29.84,WNW,292,2.9,8.1,75,0.00,CLR,SKC,0.00,WeatherDisplay:10.37,2013-06-16 14:11:00,
2013-06-16 10:16:00,75.4,66.9,29.85,West,270,8.1,8.1,75,0.00,CLR,SKC,0.00,WeatherDisplay:10.37,2013-06-16 14:16:00,
2013-06-16 10:21:00,75.6,66.7,29.84,SSE,158,2.4,4.6,74,0.00,CLR,SKC,0.00,WeatherDisplay:10.37,2013-06-16 14:21:00,
2013-06-16 10:26:00,75.7,66.9,29.84,SW,225,4.9,6.9,74,0.00,CLR,SKC,0.00,WeatherDisplay:10.37,2013-06-16 14:26:00,
2013-06-16 10:31:00,76.1,67.2,29.84,West,270,3.4,4.6,74,0.00,CLR,SKC,0.00,WeatherDisplay:10.37,2013-06-16 14:31:00,
2013-06-16 10:36:00,76.8,67.5,29.84,West,270,4.9,10.4,73,0.00,CLR,SKC,0.00,WeatherDisplay:10.37,2013-06-16 14:36:00,
2013-06-16 10:41:00,77.4,67.6,29.84,SSW,202,4.4,5.8,72,0.00,CLR,SKC,0.00,WeatherDisplay:10.37,2013-06-16 14:41:00,
2013-06-16 10:46:00,77.9,68.1,29.83,West,270,3.0,10.4,72,0.00,CLR,SKC,0.00,WeatherDisplay:10.37,2013-06-16 14:46:00,
2013-06-16 10:51:00,78.1,67.9,29.83,NW,315,8.6,9.2,71,0.00,CLR,SKC,0.00,WeatherDisplay:10.37,2013-06-16 14:51:00,
2013-06-16 10:56:00,78.4,67.8,29.84,SW,225,4.7,8.1,70,0.00,CLR,SKC,0.00,WeatherDisplay:10.37,2013-06-16 14:56:00,
2013-06-16 11:01:00,78.8,68.2,29.84,West,270,10.7,11.8,70,0.00,CLR,SKC,0.00,WeatherDisplay:10.37,2013-06-16 15:01:00,
2013-06-16 11:06:00,79.0,68.4,29.83,WSW,248,6.6,6.9,70,0.00,CLR,SKC,0.00,WeatherDisplay:10.37,2013-06-16 15:06:00,
2013-06-16 11:11:00,79.5,68.5,29.84,WSW,248,6.1,9.2,69,0.00,CLR,SKC,0.00,WeatherDisplay:10.37,2013-06-16 15:11:00,
2013-06-16 11:16:00,80.4,68.9,29.84,WSW,248,5.2,16.1,68,0.00,CLR,SKC,0.00,WeatherDisplay:10.37,2013-06-16 15:16:00,
2013-06-16 11:21:00,81.1,69.1,29.84,West,270,10.3,18.4,67,0.00,CLR,SKC,0.00,WeatherDisplay:10.37,2013-06-16 15:21:00,
2013-06-16 11:26:00,81.5,69.0,29.84,West,270,0.3,12.7,66,0.00,CLR,SKC,0.00,WeatherDisplay:10.37,2013-06-16 15:26:00,
2013-06-16 11:31:00,82.0,69.6,29.84,WSW,248,5.2,9.2,66,0.00,CLR,SKC,0.00,WeatherDisplay:10.37,2013-06-16 15:31:00,
2013-06-16 11:36:00,81.7,68.8,29.84,West,270,4.1,6.9,65,0.00,CLR,SKC,0.00,WeatherDisplay:10.37,2013-06-16 15:36:00,
2013-06-16 11:41:00,81.5,68.6,29.83,NW,315,5.5,11.8,65,0.00,CLR,SKC,0.00,WeatherDisplay:10.37,2013-06-16 15:41:00,
2013-06-16 11:46:00,81.1,68.3,29.84,West,270,5.0,9.2,65,0.00,CLR,SKC,0.00,WeatherDisplay:10.37,2013-06-16 15:46:00,
2013-06-16 11:51:00,81.3,68.9,29.84,South,180,1.2,3.6,66,0.00,CLR,SKC,0.00,WeatherDisplay:10.37,2013-06-16 15:51:00,
2013-06-16 11:56:00,81.9,69.4,29.84,West,270,4.9,8.1,66,0.00,CLR,SKC,0.00,WeatherDisplay:10.37,2013-06-16 15:56:00,
2013-06-16 12:01:00,82.0,69.1,29.84,West,270,7.2,9.2,65,0.00,CLR,SKC,0.00,WeatherDisplay:10.37,2013-06-16 16:01:00,
2013-06-16 12:06:00,81.7,68.8,29.83,WSW,248,4.6,10.4,65,0.00,CLR,SKC,0.00,WeatherDisplay:10.37,2013-06-16 16:06:00,
2013-06-16 12:11:00,81.3,68.4,29.84,West,270,6.9,11.5,65,0.00,CLR,SKC,0.00,WeatherDisplay:10.37,2013-06-16 16:11:00,
2013-06-16 12:16:00,81.0,68.5,29.84,WSW,248,1.9,5.8,66,0.00,CLR,SKC,0.00,WeatherDisplay:10.37,2013-06-16 16:16:00,
2013-06-16 12:21:00,80.8,68.4,29.84,West,270,2.6,3.5,66,0.00,CLR,SKC,0.00,WeatherDisplay:10.37,2013-06-16 16:21:00,
2013-06-16 12:26:00,80.8,68.4,29.84,WSW,248,2.0,3.5,66,0.00,CLR,SKC,0.00,WeatherDisplay:10.37,2013-06-16 16:26:00,
2013-06-16 12:31:00,80.8,68.4,29.84,West,270,4.6,5.8,66,0.00,CLR,SKC,0.00,WeatherDisplay:10.37,2013-06-16 16:31:00,
2013-06-16 12:36:00,81.0,68.5,29.84,West,270,1.5,3.5,66,0.00,CLR,SKC,0.00,WeatherDisplay:10.37,2013-06-16 16:36:00,
2013-06-16 12:41:00,81.0,68.5,29.84,West,270,3.1,5.8,66,0.00,CLR,SKC,0.00,WeatherDisplay:10.37,2013-06-16 16:41:00,
2013-06-16 12:46:00,80.8,68.4,29.83,WSW,248,3.9,8.1,66,0.00,CLR,SKC,0.00,WeatherDisplay:10.37,2013-06-16 16:46:00,
2013-06-16 12:51:00,81.0,68.5,29.83,WNW,292,0.4,5.8,66,0.00,CLR,SKC,0.00,WeatherDisplay:10.37,2013-06-16 16:51:00,
2013-06-16 12:56:00,81.3,68.4,29.83,WSW,248,5.7,15.0,65,0.00,CLR,SKC,0.00,WeatherDisplay:10.37,2013-06-16 16:56:00,
2013-06-16 13:01:00,81.3,68.4,29.83,West,270,3.4,4.6,65,0.00,CLR,SKC,0.00,WeatherDisplay:10.37,2013-06-16 17:01:00,
2013-06-16 13:06:00,81.7,68.8,29.83,West,270,0.8,4.6,65,0.00,CLR,SKC,0.00,WeatherDisplay:10.37,2013-06-16 17:06:00,
2013-06-16 13:11:00,81.9,68.5,29.84,West,270,4.3,5.8,64,0.00,CLR,SKC,0.00,WeatherDisplay:10.37,2013-06-16 17:11:00,
2013-06-16 13:16:00,82.0,68.7,29.83,WNW,292,1.4,3.6,64,0.00,CLR,SKC,0.00,WeatherDisplay:10.37,2013-06-16 17:16:00,
2013-06-16 13:21:00,82.2,68.8,29.83,West,270,1.9,4.7,64,0.00,CLR,SKC,0.00,WeatherDisplay:10.37,2013-06-16 17:21:00,
2013-06-16 13:26:00,82.6,69.6,29.84,WSW,248,3.9,6.9,65,0.00,CLR,SKC,0.00,WeatherDisplay:10.37,2013-06-16 17:26:00,
2013-06-16 13:31:00,82.8,68.9,29.83,West,270,1.5,5.8,63,0.00,CLR,SKC,0.00,WeatherDisplay:10.37,2013-06-16 17:31:00,
2013-06-16 13:36:00,83.1,69.2,29.83,WNW,292,5.4,11.5,63,0.00,CLR,SKC,0.00,WeatherDisplay:10.37,2013-06-16 17:36:00,
2013-06-16 13:41:00,83.3,69.4,29.83,West,270,3.1,5.8,63,0.00,CLR,SKC,0.00,WeatherDisplay:10.37,2013-06-16 17:41:00,
2013-06-16 13:46:00,83.5,69.6,29.83,NW,315,3.4,6.9,63,0.00,CLR,SKC,0.00,WeatherDisplay:10.37,2013-06-16 17:46:00,
2013-06-16 13:51:00,83.5,69.1,29.83,West,270,5.1,8.1,62,0.00,CLR,SKC,0.00,WeatherDisplay:10.37,2013-06-16 17:51:00,
2013-06-16 13:56:00,83.3,68.9,29.83,WNW,292,3.9,11.5,62,0.00,CLR,SKC,0.00,WeatherDisplay:10.37,2013-06-16 17:56:00,
2013-06-16 14:01:00,83.1,69.2,29.83,SW,225,2.5,3.5,63,0.00,CLR,SKC,0.00,WeatherDisplay:10.37,2013-06-16 18:01:00,
2013-06-16 14:06:00,82.9,69.0,29.83,West,270,2.1,3.4,63,0.00,CLR,SKC,0.00,WeatherDisplay:10.37,2013-06-16 18:06:00,
2013-06-16 14:11:00,83.1,69.2,29.82,NW,315,1.1,2.3,63,0.00,CLR,SKC,0.00,WeatherDisplay:10.37,2013-06-16 18:11:00,
2013-06-16 14:16:00,83.5,69.6,29.82,West,270,2.2,3.8,63,0.00,CLR,SKC,0.00,WeatherDisplay:10.37,2013-06-16 18:16:00,
2013-06-16 14:21:00,83.5,69.6,29.83,WSW,248,1.2,8.0,63,0.00,CLR,SKC,0.00,WeatherDisplay:10.37,2013-06-16 18:21:00,
2013-06-16 14:26:00,82.9,69.0,29.83,WSW,248,0.3,8.1,63,0.00,CLR,SKC,0.00,WeatherDisplay:10.37,2013-06-16 18:26:00,
2013-06-16 14:31:00,82.8,69.3,29.83,NNW,338,0.6,4.6,64,0.00,CLR,SKC,0.00,WeatherDisplay:10.37,2013-06-16 18:31:00,
2013-06-16 14:36:00,82.9,69.0,29.83,WSW,248,1.9,4.6,63,0.00,CLR,SKC,0.00,WeatherDisplay:10.37,2013-06-16 18:36:00,
2013-06-16 14:41:00,83.1,69.2,29.83,WSW,248,3.8,9.2,63,0.00,CLR,SKC,0.00,WeatherDisplay:10.37,2013-06-16 18:41:00,
2013-06-16 14:46:00,83.1,69.2,29.83,West,270,2.0,6.9,63,0.00,CLR,SKC,0.00,WeatherDisplay:10.37,2013-06-16 18:46:00,
2013-06-16 14:51:00,83.5,70.0,29.83,West,270,4.8,5.8,64,0.00,CLR,SKC,0.00,WeatherDisplay:10.37,2013-06-16 18:51:00,
2013-06-16 14:56:00,83.7,69.7,29.83,West,270,3.1,4.6,63,0.00,CLR,SKC,0.00,WeatherDisplay:10.37,2013-06-16 18:56:00,
2013-06-16 15:01:00,83.8,69.9,29.83,WNW,292,2.3,4.6,63,0.00,CLR,SKC,0.00,WeatherDisplay:10.37,2013-06-16 19:01:00,
2013-06-16 15:06:00,83.8,69.9,29.83,South,180,2.0,4.6,63,0.00,CLR,SKC,0.00,WeatherDisplay:10.37,2013-06-16 19:06:00,
2013-06-16 15:11:00,83.8,70.4,29.83,WSW,248,2.5,3.5,64,0.00,CLR,SKC,0.00,WeatherDisplay:10.37,2013-06-16 19:11:00,
2013-06-16 15:16:00,84.0,70.1,29.83,WSW,248,3.3,5.8,63,0.00,CLR,SKC,0.00,WeatherDisplay:10.37,2013-06-16 19:16:00,
2013-06-16 15:21:00,84.0,69.6,29.82,SW,225,3.6,10.4,62,0.00,CLR,SKC,0.00,WeatherDisplay:10.37,2013-06-16 19:21:00,
2013-06-16 15:26:00,84.0,69.6,29.82,ENE,68,2.1,2.9,62,0.00,CLR,SKC,0.00,WeatherDisplay:10.37,2013-06-16 19:26:00,
2013-06-16 15:31:00,84.4,70.4,29.82,WSW,248,7.1,9.2,63,0.00,CLR,SKC,0.00,WeatherDisplay:10.37,2013-06-16 19:31:00,
2013-06-16 15:36:00,84.7,70.3,29.82,WSW,248,7.4,7.4,62,0.00,CLR,SKC,0.00,WeatherDisplay:10.37,2013-06-16 19:36:00,
2013-06-16 15:41:00,84.9,70.0,29.82,WNW,292,3.0,5.8,61,0.00,CLR,SKC,0.00,WeatherDisplay:10.37,2013-06-16 19:41:00,
2013-06-16 15:46:00,85.3,70.3,29.82,SW,225,5.0,8.1,61,0.00,CLR,SKC,0.00,WeatherDisplay:10.37,2013-06-16 19:46:00,
2013-06-16 15:51:00,85.8,70.3,29.82,West,270,2.0,9.2,60,0.00,CLR,SKC,0.00,WeatherDisplay:10.37,2013-06-16 19:51:00,
2013-06-16 15:56:00,86.2,70.7,29.82,WSW,248,2.3,5.8,60,0.00,CLR,SKC,0.00,WeatherDisplay:10.37,2013-06-16 19:56:00,
2013-06-16 16:01:00,86.2,70.2,29.82,West,270,6.8,14.5,59,0.00,CLR,SKC,0.00,WeatherDisplay:10.37,2013-06-16 20:01:00,
2013-06-16 16:06:00,86.2,70.2,29.82,WSW,248,4.4,8.1,59,0.00,CLR,SKC,0.00,WeatherDisplay:10.37,2013-06-16 20:06:00,
2013-06-16 16:11:00,86.0,70.0,29.82,WSW,248,1.0,11.5,59,0.00,CLR,SKC,0.00,WeatherDisplay:10.37,2013-06-16 20:11:00,
2013-06-16 16:16:00,86.0,69.5,29.82,WSW,248,6.6,12.7,58,0.00,CLR,SKC,0.00,WeatherDisplay:10.37,2013-06-16 20:16:00,
2013-06-16 16:21:00,86.2,70.2,29.81,SSE,158,4.5,6.9,59,0.00,CLR,SKC,0.00,WeatherDisplay:10.37,2013-06-16 20:21:00,
2013-06-16 16:26:00,86.2,70.2,29.81,WSW,248,6.5,10.9,59,0.00,CLR,SKC,0.00,WeatherDisplay:10.37,2013-06-16 20:26:00,
2013-06-16 16:31:00,85.8,69.3,29.81,SSE,158,2.4,15.0,58,0.00,CLR,SKC,0.00,WeatherDisplay:10.37,2013-06-16 20:31:00,
2013-06-16 16:36:00,85.3,69.3,29.82,West,270,1.1,3.5,59,0.00,CLR,SKC,0.00,WeatherDisplay:10.37,2013-06-16 20:36:00,
2013-06-16 16:41:00,84.7,69.3,29.82,WSW,248,4.0,5.8,60,0.00,CLR,SKC,0.00,WeatherDisplay:10.37,2013-06-16 20:41:00,
2013-06-16 16:46:00,84.7,69.8,29.82,West,270,4.4,9.2,61,0.00,CLR,SKC,0.00,WeatherDisplay:10.37,2013-06-16 20:46:00,
2013-06-16 16:51:00,84.9,70.0,29.81,West,270,6.6,11.5,61,0.00,CLR,SKC,0.00,WeatherDisplay:10.37,2013-06-16 20:51:00,
2013-06-16 16:56:00,84.9,70.0,29.81,West,270,0.9,4.6,61,0.00,CLR,SKC,0.00,WeatherDisplay:10.37,2013-06-16 20:56:00,
2013-06-16 17:01:00,84.9,70.4,29.81,WSW,248,2.5,3.5,62,0.00,CLR,SKC,0.00,WeatherDisplay:10.37,2013-06-16 21:01:00,
2013-06-16 17:06:00,85.1,70.1,29.81,SSW,202,0.7,3.5,61,0.00,CLR,SKC,0.00,WeatherDisplay:10.37,2013-06-16 21:06:00,
2013-06-16 17:11:00,84.7,69.8,29.80,West,270,3.8,11.5,61,0.00,CLR,SKC,0.00,WeatherDisplay:10.37,2013-06-16 21:11:00,
2013-06-16 17:16:00,84.7,69.8,29.80,SSW,202,6.8,9.2,61,0.00,CLR,SKC,0.00,WeatherDisplay:10.37,2013-06-16 21:16:00,
2013-06-16 17:21:00,84.6,69.6,29.81,SSW,202,3.7,18.4,61,0.00,CLR,SKC,0.00,WeatherDisplay:10.37,2013-06-16 21:21:00,
2013-06-16 17:26:00,84.2,69.3,29.81,West,270,4.2,5.8,61,0.00,CLR,SKC,0.00,WeatherDisplay:10.37,2013-06-16 21:26:00,
2013-06-16 17:31:00,84.4,69.9,29.80,WSW,248,5.4,10.4,62,0.00,CLR,SKC,0.00,WeatherDisplay:10.37,2013-06-16 21:31:00,
2013-06-16 17:36:00,84.6,70.1,29.80,WSW,248,4.8,9.2,62,0.00,CLR,SKC,0.00,WeatherDisplay:10.37,2013-06-16 21:36:00,
2013-06-16 17:41:00,84.9,70.0,29.80,West,270,3.3,8.1,61,0.00,CLR,SKC,0.00,WeatherDisplay:10.37,2013-06-16 21:41:00,
2013-06-16 17:46:00,84.7,69.8,29.80,WSW,248,4.1,6.9,61,0.00,CLR,SKC,0.00,WeatherDisplay:10.37,2013-06-16 21:46:00,
2013-06-16 17:51:00,84.6,70.1,29.80,West,270,5.5,15.0,62,0.00,CLR,SKC,0.00,WeatherDisplay:10.37,2013-06-16 21:51:00,
2013-06-16 17:56:00,84.6,69.6,29.80,West,270,3.9,9.2,61,0.00,CLR,SKC,0.00,WeatherDisplay:10.37,2013-06-16 21:56:00,
2013-06-16 18:01:00,84.9,70.0,29.80,West,270,3.7,6.9,61,0.00,CLR,SKC,0.00,WeatherDisplay:10.37,2013-06-16 22:01:00,
2013-06-16 18:06:00,84.7,69.8,29.80,West,270,5.3,5.8,61,0.00,CLR,SKC,0.00,WeatherDisplay:10.37,2013-06-16 22:06:00,
2013-06-16 18:11:00,84.2,69.3,29.80,West,270,2.0,5.8,61,0.00,CLR,SKC,0.00,WeatherDisplay:10.37,2013-06-16 22:11:00,
2013-06-16 18:16:00,84.0,69.1,29.81,West,270,4.3,8.1,61,0.00,CLR,SKC,0.00,WeatherDisplay:10.37,2013-06-16 22:16:00,
2013-06-16 18:21:00,84.0,69.6,29.80,West,270,6.4,9.2,62,0.00,CLR,SKC,0.00,WeatherDisplay:10.37,2013-06-16 22:21:00,
2013-06-16 18:26:00,84.0,69.6,29.80,West,270,2.9,4.6,62,0.00,CLR,SKC,0.00,WeatherDisplay:10.37,2013-06-16 22:26:00,
2013-06-16 18:31:00,84.0,69.6,29.80,WSW,248,2.6,8.0,62,0.00,CLR,SKC,0.00,WeatherDisplay:10.37,2013-06-16 22:31:00,
2013-06-16 18:36:00,84.0,69.6,29.80,West,270,6.9,6.9,62,0.00,CLR,SKC,0.00,WeatherDisplay:10.37,2013-06-16 22:36:00,
2013-06-16 18:41:00,84.0,69.6,29.80,West,270,2.2,9.4,62,0.00,CLR,SKC,0.00,WeatherDisplay:10.37,2013-06-16 22:41:00,
2013-06-16 18:46:00,84.0,69.6,29.80,West,270,3.5,6.5,62,0.00,CLR,SKC,0.00,WeatherDisplay:10.37,2013-06-16 22:46:00,
2013-06-16 18:51:00,84.0,69.6,29.80,SSW,202,1.4,2.3,62,0.00,CLR,SKC,0.00,WeatherDisplay:10.37,2013-06-16 22:51:00,
2013-06-16 18:56:00,84.0,69.6,29.79,WSW,248,5.1,5.8,62,0.00,CLR,SKC,0.00,WeatherDisplay:10.37,2013-06-16 22:56:00,
2013-06-16 19:01:00,84.0,69.6,29.80,WSW,248,0.5,3.5,62,0.00,CLR,SKC,0.00,WeatherDisplay:10.37,2013-06-16 23:01:00,
2013-06-16 19:06:00,84.0,69.6,29.79,West,270,2.6,8.1,62,0.00,CLR,SKC,0.00,WeatherDisplay:10.37,2013-06-16 23:06:00,
2013-06-16 19:11:00,83.8,69.4,29.79,West,270,0.4,5.8,62,0.00,CLR,SKC,0.00,WeatherDisplay:10.37,2013-06-16 23:11:00,
2013-06-16 19:16:00,83.8,69.4,29.80,WSW,248,2.3,6.9,62,0.00,CLR,SKC,0.00,WeatherDisplay:10.37,2013-06-16 23:16:00,
2013-06-16 19:21:00,83.8,69.4,29.79,West,270,0.1,2.0,62,0.00,CLR,SKC,0.00,WeatherDisplay:10.37,2013-06-16 23:21:00,
2013-06-16 19:26:00,83.5,69.1,29.80,SSW,202,3.0,3.4,62,0.00,CLR,SKC,0.00,WeatherDisplay:10.37,2013-06-16 23:26:00,
2013-06-16 19:31:00,83.5,69.1,29.79,West,270,1.4,2.3,62,0.00,CLR,SKC,0.00,WeatherDisplay:10.37,2013-06-16 23:31:00,
2013-06-16 19:36:00,83.3,68.9,29.79,NW,315,3.1,5.8,62,0.00,CLR,SKC,0.00,WeatherDisplay:10.37,2013-06-16 23:36:00,
2013-06-16 19:41:00,83.1,68.7,29.79,WSW,248,2.2,2.2,62,0.00,CLR,SKC,0.00,WeatherDisplay:10.37,2013-06-16 23:41:00,
2013-06-16 19:46:00,83.1,69.2,29.79,WSW,248,0.7,4.2,63,0.00,CLR,SKC,0.00,WeatherDisplay:10.37,2013-06-16 23:46:00,
2013-06-16 19:51:00,82.9,68.6,29.79,NW,315,0.6,2.5,62,0.00,CLR,SKC,0.00,WeatherDisplay:10.37,2013-06-16 23:51:00,
2013-06-16 19:56:00,82.4,68.5,29.80,WNW,292,0.1,4.6,63,0.00,CLR,SKC,0.00,WeatherDisplay:10.37,2013-06-16 23:56:00,
2013-06-16 20:01:00,82.0,68.2,29.80,WSW,248,0.7,2.3,63,0.00,CLR,SKC,0.00,WeatherDisplay:10.37,2013-06-17 00:01:00,
2013-06-16 20:06:00,81.7,68.3,29.80,WSW,248,0.1,0.0,64,0.00,CLR,SKC,0.00,WeatherDisplay:10.37,2013-06-17 00:06:00,
2013-06-16 20:11:00,81.5,68.1,29.80,West,270,0.1,2.3,64,0.00,CLR,SKC,0.00,WeatherDisplay:10.37,2013-06-17 00:11:00,
2013-06-16 20:16:00,81.3,68.4,29.80,West,270,2.8,4.6,65,0.00,CLR,SKC,0.00,WeatherDisplay:10.37,2013-06-17 00:16:00,
2013-06-16 20:21:00,81.3,68.4,29.79,WSW,248,0.0,1.1,65,0.00,CLR,SKC,0.00,WeatherDisplay:10.37,2013-06-17 00:21:00,
2013-06-16 20:26:00,81.1,68.3,29.79,WSW,248,0.6,0.0,65,0.00,CLR,SKC,0.00,WeatherDisplay:10.37,2013-06-17 00:26:00,
2013-06-16 20:31:00,80.8,68.4,29.79,South,180,0.0,0.0,66,0.00,CLR,SKC,0.00,WeatherDisplay:10.37,2013-06-17 00:31:00,
2013-06-16 20:36:00,80.4,68.0,29.79,South,180,0.0,0.0,66,0.00,CLR,SKC,0.00,WeatherDisplay:10.37,2013-06-17 00:36:00,
2013-06-16 20:41:00,79.9,67.9,29.80,South,180,0.0,0.0,67,0.00,CLR,SKC,0.00,WeatherDisplay:10.37,2013-06-17 00:41:00,
2013-06-16 20:46:00,79.7,67.8,29.79,South,180,0.0,0.0,67,0.00,CLR,SKC,0.00,WeatherDisplay:10.37,2013-06-17 00:46:00,
2013-06-16 20:51:00,79.5,67.6,29.80,SSW,202,0.5,1.1,67,0.00,CLR,SKC,0.00,WeatherDisplay:10.37,2013-06-17 00:51:00,
2013-06-16 20:56:00,79.3,67.9,29.79,SSW,202,0.0,1.1,68,0.00,CLR,SKC,0.00,WeatherDisplay:10.37,2013-06-17 00:56:00,
2013-06-16 21:01:00,79.0,67.5,29.79,SSW,202,0.0,0.0,68,0.00,CLR,SKC,0.00,WeatherDisplay:10.37,2013-06-17 01:01:00,
2013-06-16 21:06:00,78.6,67.2,29.80,SSW,202,0.0,0.0,68,0.00,CLR,SKC,0.00,WeatherDisplay:10.37,2013-06-17 01:06:00,
2013-06-16 21:11:00,78.4,67.4,29.79,SSW,202,0.0,0.0,69,0.00,CLR,SKC,0.00,WeatherDisplay:10.37,2013-06-17 01:11:00,
2013-06-16 21:16:00,78.1,67.5,29.79,SSW,202,0.0,0.0,70,0.00,CLR,SKC,0.00,WeatherDisplay:10.37,2013-06-17 01:16:00,
2013-06-16 21:21:00,77.7,67.2,29.79,South,180,0.0,2.3,70,0.00,CLR,SKC,0.00,WeatherDisplay:10.37,2013-06-17 01:21:00,
2013-06-16 21:26:00,77.4,66.8,29.79,South,180,0.0,0.0,70,0.00,CLR,SKC,0.00,WeatherDisplay:10.37,2013-06-17 01:26:00,
2013-06-16 21:31:00,77.0,66.9,29.79,South,180,0.0,0.0,71,0.00,CLR,SKC,0.00,WeatherDisplay:10.37,2013-06-17 01:31:00,
2013-06-16 21:36:00,76.6,66.5,29.79,South,180,0.0,0.0,71,0.00,CLR,SKC,0.00,WeatherDisplay:10.37,2013-06-17 01:36:00,
2013-06-16 21:41:00,76.5,66.8,29.79,SSW,202,0.0,0.0,72,0.00,CLR,SKC,0.00,WeatherDisplay:10.37,2013-06-17 01:41:00,
2013-06-16 21:46:00,76.1,66.4,29.79,SSW,202,0.0,0.0,72,0.00,CLR,SKC,0.00,WeatherDisplay:10.37,2013-06-17 01:46:00,
2013-06-16 21:51:00,75.9,66.2,29.79,South,180,0.0,0.0,72,0.00,CLR,SKC,0.00,WeatherDisplay:10.37,2013-06-17 01:51:00,
2013-06-16 21:56:00,75.7,66.5,29.79,SSW,202,0.0,0.0,73,0.00,CLR,SKC,0.00,WeatherDisplay:10.37,2013-06-17 01:56:00,
2013-06-16 22:01:00,75.6,66.3,29.79,South,180,0.0,0.0,73,0.00,CLR,SKC,0.00,WeatherDisplay:10.37,2013-06-17 02:01:00,
2013-06-16 22:06:00,75.4,66.5,29.79,South,180,0.0,0.0,74,0.00,CLR,SKC,0.00,WeatherDisplay:10.37,2013-06-17 02:06:00,
2013-06-16 22:11:00,75.2,66.3,29.80,South,180,0.0,0.0,74,0.00,CLR,SKC,0.00,WeatherDisplay:10.37,2013-06-17 02:11:00,
2013-06-16 22:16:00,75.0,66.2,29.80,SSW,202,0.0,0.0,74,0.00,CLR,SKC,0.00,WeatherDisplay:10.37,2013-06-17 02:16:00,
2013-06-16 22:21:00,75.0,66.6,29.80,SSW,202,0.0,0.0,75,0.00,CLR,SKC,0.00,WeatherDisplay:10.37,2013-06-17 02:21:00,
2013-06-16 22:26:00,74.8,66.4,29.80,SSW,202,0.0,0.0,75,0.00,CLR,SKC,0.00,WeatherDisplay:10.37,2013-06-17 02:26:00,
2013-06-16 22:31:00,74.5,66.0,29.81,SSW,202,0.0,0.0,75,0.00,CLR,SKC,0.00,WeatherDisplay:10.37,2013-06-17 02:31:00,
2013-06-16 22:36:00,74.3,65.9,29.81,SSW,202,0.0,0.0,75,0.00,CLR,SKC,0.00,WeatherDisplay:10.37,2013-06-17 02:36:00,
2013-06-16 22:41:00,74.1,66.1,29.81,SSW,202,0.0,0.0,76,0.00,CLR,SKC,0.00,WeatherDisplay:10.37,2013-06-17 02:41:00,
2013-06-16 22:46:00,73.9,65.9,29.81,SSW,202,0.0,0.0,76,0.00,CLR,SKC,0.00,WeatherDisplay:10.37,2013-06-17 02:46:00,
2013-06-16 22:51:00,73.8,65.7,29.81,SSW,202,0.0,0.0,76,0.00,CLR,SKC,0.00,WeatherDisplay:10.37,2013-06-17 02:51:00,
2013-06-16 22:56:00,73.6,65.9,29.81,SSW,202,0.0,0.0,77,0.00,CLR,SKC,0.00,WeatherDisplay:10.37,2013-06-17 02:56:00,
2013-06-16 23:01:00,73.2,65.6,29.81,SSW,202,0.0,0.0,77,0.00,CLR,SKC,0.00,WeatherDisplay:10.37,2013-06-17 03:01:00,
2013-06-16 23:06:00,73.2,65.6,29.81,SSW,202,0.0,0.0,77,0.00,CLR,SKC,0.00,WeatherDisplay:10.37,2013-06-17 03:06:00,
2013-06-16 23:11:00,73.0,65.4,29.82,SSW,202,0.0,0.0,77,0.00,CLR,SKC,0.00,WeatherDisplay:10.37,2013-06-17 03:11:00,
2013-06-16 23:16:00,72.7,65.4,29.82,SSW,202,0.0,0.0,78,0.00,CLR,SKC,0.00,WeatherDisplay:10.37,2013-06-17 03:16:00,
2013-06-16 23:21:00,72.7,65.4,29.82,SSW,202,0.0,0.0,78,0.00,CLR,SKC,0.00,WeatherDisplay:10.37,2013-06-17 03:21:00,
2013-06-16 23:26:00,72.5,65.2,29.82,SSW,202,0.0,0.0,78,0.00,CLR,SKC,0.00,WeatherDisplay:10.37,2013-06-17 03:26:00,
2013-06-16 23:31:00,72.3,65.1,29.82,SSW,202,0.0,0.0,78,0.00,CLR,SKC,0.00,WeatherDisplay:10.37,2013-06-17 03:31:00,
2013-06-16 23:36:00,72.3,65.4,29.82,SSW,202,0.0,0.0,79,0.00,CLR,SKC,0.00,WeatherDisplay:10.37,2013-06-17 03:36:00,
2013-06-16 23:41:00,72.1,65.3,29.82,SSW,202,0.0,0.0,79,0.00,CLR,SKC,0.00,WeatherDisplay:10.37,2013-06-17 03:41:00,
2013-06-16 23:46:00,72.0,65.1,29.82,SSW,202,0.0,0.0,79,0.00,CLR,SKC,0.00,WeatherDisplay:10.37,2013-06-17 03:46:00,
2013-06-16 23:51:00,71.8,64.9,29.82,SSW,202,0.0,0.0,79,0.00,CLR,SKC,0.00,WeatherDisplay:10.37,2013-06-17 03:51:00,
2013-06-16 23:56:00,71.6,64.7,29.82,SSW,202,0.0,0.0,79,0.00,CLR,SKC,0.00,WeatherDisplay:10.37,2013-06-17 03:56:00,